Time;durP1;ratioP1;P1;durP2;ratioP2;P2;SDS_P1;SDS_P2;PMS_P1;PMS_P2;Temp;Humidity;BMP_temperature;BMP_pressure;BME280_temperature;BME280_humidity;BME280_pressure;Samples;Min_cycle;Max_cycle;Signal;HPM_P1;HPM_P2
2024/02/05 00:00:45;;;;;;;178.55;166.45;;;11.00;99.90;;;;;;5031763;28;20045;-72
2024/02/05 00:03:11;;;;;;;195.38;183.43;;;11.00;99.90;;;;;;5032039;28;20038;-73
2024/02/05 00:05:37;;;;;;;158.15;147.90;;;11.00;99.90;;;;;;5031352;28;20497;-73
2024/02/05 00:08:05;;;;;;;168.23;156.77;;;10.90;99.90;;;;;;5032379;28;20029;-72
2024/02/05 00:10:31;;;;;;;186.93;174.60;;;10.90;99.90;;;;;;5032067;28;20037;-73
2024/02/05 00:12:57;;;;;;;179.10;167.20;;;10.80;99.90;;;;;;5031473;28;20092;-72
2024/02/05 00:15:23;;;;;;;192.73;180.70;;;10.80;99.90;;;;;;5031518;28;20044;-73
2024/02/05 00:17:50;;;;;;;204.50;190.40;;;10.90;99.90;;;;;;5032347;28;20403;-73
2024/02/05 00:20:16;;;;;;;197.73;184.38;;;10.90;99.90;;;;;;5031887;28;20026;-73
2024/02/05 00:22:43;;;;;;;203.52;189.50;;;10.90;99.90;;;;;;5038967;28;20048;-73
2024/02/05 00:25:10;;;;;;;188.77;175.90;;;10.90;99.90;;;;;;5051653;28;20028;-73
2024/02/05 00:27:37;;;;;;;217.73;203.25;;;11.00;99.90;;;;;;5011892;28;20041;-73
2024/02/05 00:30:04;;;;;;;243.77;228.85;;;10.90;99.90;;;;;;5012173;28;20060;-72
2024/02/05 00:32:30;;;;;;;289.85;272.02;;;10.90;99.90;;;;;;5030799;28;20037;-72
2024/02/05 00:34:57;;;;;;;180.85;169.00;;;10.90;99.90;;;;;;5031856;28;20036;-73
2024/02/05 00:37:24;;;;;;;191.10;179.27;;;11.00;99.90;;;;;;5031597;28;20045;-73
2024/02/05 00:39:50;;;;;;;197.95;185.60;;;10.90;99.90;;;;;;5031458;28;20042;-72
2024/02/05 00:42:16;;;;;;;187.35;175.63;;;11.00;99.90;;;;;;5031617;28;20036;-73
2024/02/05 00:44:42;;;;;;;194.00;181.40;;;11.00;99.90;;;;;;5031481;28;20042;-73
2024/02/05 00:47:08;;;;;;;180.88;169.05;;;10.90;99.90;;;;;;5031192;28;20044;-73
2024/02/05 00:49:34;;;;;;;190.82;178.80;;;10.80;99.90;;;;;;5031891;28;20034;-73
2024/02/05 00:52:01;;;;;;;205.45;192.30;;;10.80;99.90;;;;;;5031087;28;20052;-73
2024/02/05 00:54:27;;;;;;;188.07;176.40;;;10.80;99.90;;;;;;5031889;28;20022;-73
2024/02/05 00:56:53;;;;;;;154.68;143.85;;;10.80;99.90;;;;;;5031100;28;20025;-72
2024/02/05 00:59:19;;;;;;;179.48;168.05;;;10.80;99.90;;;;;;5031706;28;20041;-73
2024/02/05 01:01:45;;;;;;;158.15;147.90;;;10.90;99.90;;;;;;5030597;28;20049;-73
2024/02/05 01:04:11;;;;;;;151.50;141.85;;;10.90;99.90;;;;;;5031253;28;20033;-72
2024/02/05 01:06:38;;;;;;;148.77;139.18;;;10.90;99.90;;;;;;5031632;28;20395;-73
2024/02/05 01:09:09;;;;;;;159.27;148.15;;;10.90;99.90;;;;;;5031646;28;20029;-73
2024/02/05 01:11:36;;;;;;;189.52;177.57;;;10.90;99.90;;;;;;5030693;28;20413;-73
2024/02/05 01:14:03;;;;;;;224.40;210.30;;;10.70;99.90;;;;;;5031112;28;20041;-73
2024/02/05 01:16:29;;;;;;;242.57;227.60;;;10.60;99.90;;;;;;5031212;28;20506;-73
2024/02/05 01:18:55;;;;;;;254.80;239.73;;;10.70;99.90;;;;;;5032478;28;20033;-73
2024/02/05 01:21:21;;;;;;;280.05;262.38;;;10.80;99.90;;;;;;5035016;28;20354;-72
2024/02/05 01:23:48;;;;;;;290.95;272.20;;;10.80;99.90;;;;;;5035285;28;20044;-73
2024/02/05 01:26:14;;;;;;;272.48;255.82;;;10.80;99.90;;;;;;5034551;28;20049;-73
2024/02/05 01:28:41;;;;;;;305.10;285.67;;;10.80;99.90;;;;;;5035120;28;20030;-72
2024/02/05 01:31:07;;;;;;;303.90;284.63;;;10.80;99.90;;;;;;5034493;28;20056;-73
2024/02/05 01:33:34;;;;;;;277.25;259.88;;;10.80;99.90;;;;;;5034642;28;20030;-73
2024/02/05 01:36:00;;;;;;;277.60;260.92;;;10.80;99.90;;;;;;5033571;28;20045;-72
2024/02/05 01:38:26;;;;;;;244.30;228.25;;;10.90;99.90;;;;;;5034795;28;20410;-73
2024/02/05 01:40:53;;;;;;;322.70;302.70;;;10.90;99.90;;;;;;5034304;28;20046;-73
2024/02/05 01:43:19;;;;;;;306.27;287.73;;;10.80;99.90;;;;;;5034574;28;20045;-73
2024/02/05 01:45:45;;;;;;;236.48;221.68;;;10.80;99.90;;;;;;5034241;28;20620;-73
2024/02/05 01:48:12;;;;;;;285.25;266.92;;;10.80;99.90;;;;;;5033772;28;20029;-73
2024/02/05 01:50:38;;;;;;;309.98;290.55;;;10.60;99.90;;;;;;5034615;28;20064;-73
2024/02/05 01:53:04;;;;;;;264.00;247.43;;;10.60;99.90;;;;;;5033871;28;20044;-73
2024/02/05 01:55:31;;;;;;;260.58;244.85;;;10.60;99.90;;;;;;5033141;28;20040;-73
2024/02/05 01:57:57;;;;;;;285.80;268.65;;;10.60;99.90;;;;;;5033047;28;20045;-73
2024/02/05 02:00:24;;;;;;;272.27;255.45;;;10.60;99.90;;;;;;5034138;28;20037;-73
2024/02/05 02:02:50;;;;;;;272.77;256.13;;;10.60;99.90;;;;;;5041553;28;20041;-73
2024/02/05 02:05:16;;;;;;;269.23;252.40;;;10.60;99.90;;;;;;5035539;28;20390;-73
2024/02/05 02:07:42;;;;;;;267.20;251.30;;;10.70;99.90;;;;;;5016530;28;20041;-72
2024/02/05 02:10:10;;;;;;;274.33;257.70;;;10.70;99.90;;;;;;5033136;28;20053;-73
2024/02/05 02:12:37;;;;;;;265.25;249.07;;;10.70;99.90;;;;;;5002772;28;20363;-73
2024/02/05 02:15:04;;;;;;;264.33;248.18;;;10.70;99.90;;;;;;5032854;28;20466;-72
2024/02/05 02:17:31;;;;;;;302.20;284.13;;;10.70;99.90;;;;;;5032832;28;20025;-73
2024/02/05 02:19:57;;;;;;;272.50;256.10;;;10.70;99.90;;;;;;5034573;28;20029;-73
2024/02/05 02:22:23;;;;;;;244.52;229.13;;;10.70;99.90;;;;;;5032075;28;20037;-73
2024/02/05 02:24:50;;;;;;;245.63;229.45;;;10.80;99.90;;;;;;5034024;28;20029;-73
2024/02/05 02:27:16;;;;;;;160.82;150.27;;;10.70;99.90;;;;;;5015939;28;20056;-73
2024/02/05 02:29:43;;;;;;;248.15;232.40;;;10.70;99.90;;;;;;5033736;28;20029;-73
2024/02/05 02:32:18;;;;;;;231.90;217.20;;;10.70;99.90;;;;;;5031865;28;20049;-73
2024/02/05 02:34:45;;;;;;;261.48;245.55;;;10.70;99.90;;;;;;5034177;28;20025;-73
2024/02/05 02:37:11;;;;;;;258.50;242.90;;;10.60;99.90;;;;;;5015620;28;20037;-73
2024/02/05 02:39:41;;;;;;;204.23;190.75;;;10.60;99.90;;;;;;5032677;28;20021;-73
2024/02/05 02:42:07;;;;;;;285.45;268.00;;;10.60;99.90;;;;;;5012741;28;20045;-73
2024/02/05 02:44:33;;;;;;;258.25;241.93;;;10.70;99.90;;;;;;5052599;28;20033;-73
2024/02/05 02:47:01;;;;;;;258.15;241.48;;;10.50;99.90;;;;;;5020035;28;20046;-73
2024/02/05 02:49:27;;;;;;;246.65;231.52;;;10.50;99.90;;;;;;5033335;28;20037;-72
2024/02/05 02:51:53;;;;;;;317.65;297.23;;;10.50;99.90;;;;;;5032809;28;20397;-73
2024/02/05 02:54:19;;;;;;;275.25;257.50;;;10.50;99.90;;;;;;5032531;28;20056;-73
2024/02/05 02:56:45;;;;;;;255.18;239.18;;;10.50;99.90;;;;;;5033116;28;20041;-73
2024/02/05 02:59:11;;;;;;;232.23;217.38;;;10.60;99.90;;;;;;5033206;28;20112;-73
2024/02/05 03:01:38;;;;;;;205.90;192.82;;;10.60;99.90;;;;;;5028875;28;20056;-73
2024/02/05 03:04:05;;;;;;;204.70;191.52;;;10.60;99.90;;;;;;5028459;28;20037;-73
2024/02/05 03:06:31;;;;;;;239.80;224.15;;;10.50;99.90;;;;;;5028798;28;20025;-72
2024/02/05 03:08:58;;;;;;;211.50;197.43;;;10.60;99.90;;;;;;5031794;28;20029;-73
2024/02/05 03:11:24;;;;;;;217.35;203.07;;;10.60;99.90;;;;;;5031522;28;20041;-73
2024/02/05 03:13:50;;;;;;;198.35;185.18;;;10.60;99.90;;;;;;5032138;28;20101;-73
2024/02/05 03:16:16;;;;;;;201.98;188.75;;;10.50;99.90;;;;;;5031210;28;20046;-73
2024/02/05 03:18:42;;;;;;;209.27;195.05;;;10.50;99.90;;;;;;5042312;28;20490;-73
2024/02/05 03:21:08;;;;;;;202.48;188.80;;;10.40;99.90;;;;;;5035749;28;20060;-73
2024/02/05 03:23:34;;;;;;;198.70;185.63;;;10.30;99.90;;;;;;5031860;28;20466;-73
2024/02/05 03:26:02;;;;;;;218.75;203.75;;;10.30;99.90;;;;;;5031633;28;20040;-72
2024/02/05 03:28:28;;;;;;;220.23;206.40;;;10.40;99.90;;;;;;5024130;28;20046;-73
2024/02/05 03:30:55;;;;;;;219.93;205.90;;;10.40;99.90;;;;;;5017277;28;20050;-73
2024/02/05 03:33:21;;;;;;;224.45;209.43;;;10.30;99.90;;;;;;5031680;28;20030;-72
2024/02/05 03:35:47;;;;;;;322.80;301.70;;;10.30;99.90;;;;;;5030946;28;20477;-73
2024/02/05 03:38:13;;;;;;;256.92;240.43;;;10.30;99.90;;;;;;5032029;28;20040;-73
2024/02/05 03:40:39;;;;;;;334.30;313.23;;;10.40;99.90;;;;;;5031901;28;20410;-73
2024/02/05 03:43:05;;;;;;;293.83;275.75;;;10.40;99.90;;;;;;5032795;28;20026;-73
2024/02/05 03:45:31;;;;;;;303.88;285.27;;;10.40;99.90;;;;;;5031606;28;20044;-73
2024/02/05 03:47:57;;;;;;;273.30;256.05;;;10.50;99.90;;;;;;5032487;28;20026;-73
2024/02/05 03:50:23;;;;;;;285.55;267.88;;;10.50;99.90;;;;;;5030716;28;20390;-73
2024/02/05 03:52:49;;;;;;;288.83;270.83;;;10.60;99.90;;;;;;5015043;28;20037;-72
2024/02/05 03:55:16;;;;;;;262.90;245.80;;;10.60;99.90;;;;;;5031398;28;20038;-73
2024/02/05 03:57:43;;;;;;;297.80;279.63;;;10.50;99.90;;;;;;5031805;28;20041;-73
2024/02/05 04:00:11;;;;;;;290.92;272.25;;;10.60;99.90;;;;;;5029716;28;20037;-72
2024/02/05 04:02:40;;;;;;;301.30;282.85;;;10.50;99.90;;;;;;5032304;28;20045;-73
2024/02/05 04:05:07;;;;;;;282.98;264.83;;;10.60;99.90;;;;;;5014388;28;20041;-73
2024/02/05 04:07:33;;;;;;;256.25;240.13;;;10.60;99.90;;;;;;5030796;28;20628;-73
2024/02/05 04:10:00;;;;;;;236.32;222.00;;;10.60;99.90;;;;;;5031765;28;20358;-73
2024/02/05 04:12:26;;;;;;;204.43;191.23;;;10.60;99.90;;;;;;5031894;28;20501;-73
2024/02/05 04:14:52;;;;;;;265.17;248.38;;;10.60;99.90;;;;;;5030990;28;20056;-73
2024/02/05 04:17:18;;;;;;;249.07;232.90;;;10.60;99.90;;;;;;5031314;28;20466;-73
2024/02/05 04:19:45;;;;;;;209.40;195.48;;;10.50;99.90;;;;;;5030884;28;20052;-73
2024/02/05 04:22:11;;;;;;;226.10;211.15;;;10.50;99.90;;;;;;5029974;28;20041;-74
2024/02/05 04:24:38;;;;;;;215.07;200.48;;;10.40;99.90;;;;;;5032074;28;20041;-73
2024/02/05 04:27:07;;;;;;;239.38;223.95;;;10.40;99.90;;;;;;5031708;28;20478;-73
2024/02/05 04:29:33;;;;;;;302.90;283.45;;;10.40;99.90;;;;;;5046899;28;20037;-73
2024/02/05 04:32:00;;;;;;;293.30;275.73;;;10.30;99.90;;;;;;5035503;28;20517;-73
2024/02/05 04:34:27;;;;;;;274.90;257.95;;;10.40;99.90;;;;;;5031771;28;20398;-73
2024/02/05 04:36:53;;;;;;;291.02;273.38;;;10.40;99.90;;;;;;5031794;28;20049;-73
2024/02/05 04:39:20;;;;;;;285.90;268.60;;;10.40;99.90;;;;;;5031200;28;20053;-73
2024/02/05 04:41:47;;;;;;;210.27;197.52;;;10.30;99.90;;;;;;5029627;28;20046;-73
2024/02/05 04:44:17;;;;;;;274.90;257.48;;;10.30;99.90;;;;;;5013915;28;20044;-73
2024/02/05 04:46:43;;;;;;;311.60;291.85;;;10.20;99.90;;;;;;5029817;28;20038;-73
2024/02/05 04:49:09;;;;;;;294.70;276.70;;;10.20;99.90;;;;;;5031003;28;20033;-73
2024/02/05 04:51:35;;;;;;;306.15;286.95;;;10.10;99.90;;;;;;5031490;28;20057;-73
2024/02/05 04:54:02;;;;;;;308.10;289.30;;;10.20;99.90;;;;;;5034767;28;20033;-73
2024/02/05 04:56:29;;;;;;;302.35;282.63;;;10.20;99.90;;;;;;5035539;28;20033;-73
2024/02/05 04:58:55;;;;;;;318.17;298.27;;;10.20;99.90;;;;;;5043036;28;20045;-73
2024/02/05 05:01:21;;;;;;;282.65;265.42;;;10.20;99.90;;;;;;5044838;28;20045;-73
2024/02/05 05:03:47;;;;;;;242.88;227.93;;;10.20;99.90;;;;;;5035408;28;20025;-73
2024/02/05 05:06:13;;;;;;;298.75;279.38;;;10.20;99.90;;;;;;5027478;28;20497;-73
2024/02/05 05:08:39;;;;;;;327.83;306.92;;;10.20;99.90;;;;;;5032525;28;20029;-73
2024/02/05 05:11:05;;;;;;;304.23;285.63;;;10.20;99.90;;;;;;5023199;28;20544;-72
2024/02/05 05:13:31;;;;;;;301.25;282.15;;;10.20;99.90;;;;;;5013834;28;20030;-73
2024/02/05 05:15:59;;;;;;;298.95;280.60;;;10.20;99.90;;;;;;5021719;28;20045;-73
2024/02/05 05:18:26;;;;;;;266.73;249.80;;;10.20;99.90;;;;;;5035044;28;20033;-73
2024/02/05 05:20:52;;;;;;;232.35;217.25;;;10.20;99.90;;;;;;5034795;28;20049;-73
2024/02/05 05:23:18;;;;;;;197.00;184.13;;;10.30;99.90;;;;;;5035310;28;20463;-72
2024/02/05 05:25:44;;;;;;;240.57;224.80;;;10.20;99.90;;;;;;5035090;28;20045;-73
2024/02/05 05:28:10;;;;;;;260.40;242.60;;;10.20;99.90;;;;;;5034941;28;21739;-72
2024/02/05 05:30:36;;;;;;;274.20;256.25;;;10.20;99.90;;;;;;5034149;28;20049;-73
2024/02/05 05:33:02;;;;;;;231.07;125.20;;;10.30;99.90;;;;;;5035102;28;20033;-73
2024/02/05 05:35:28;;;;;;;169.30;156.95;;;10.20;99.90;;;;;;5034259;28;21508;-73
2024/02/05 05:37:54;;;;;;;218.32;203.48;;;10.20;99.90;;;;;;5033389;28;20049;-73
2024/02/05 05:40:21;;;;;;;239.30;223.70;;;10.10;99.90;;;;;;5018049;28;20520;-72
2024/02/05 05:42:47;;;;;;;269.58;251.98;;;10.10;99.90;;;;;;5034839;28;20048;-73
2024/02/05 05:45:13;;;;;;;270.00;252.90;;;10.20;99.90;;;;;;5033925;28;20030;-73
2024/02/05 05:47:39;;;;;;;225.68;211.05;;;10.30;99.90;;;;;;5023240;28;20040;-73
2024/02/05 05:50:06;;;;;;;140.48;130.63;;;10.30;99.90;;;;;;5030499;28;20083;-72
2024/02/05 05:52:33;;;;;;;150.10;139.95;;;10.30;99.90;;;;;;5034576;28;20045;-73
2024/02/05 05:54:59;;;;;;;168.63;157.60;;;10.30;99.90;;;;;;5034360;28;20425;-73
2024/02/05 05:57:27;;;;;;;165.52;155.20;;;10.30;99.90;;;;;;5033908;28;20053;-73
2024/02/05 05:59:53;;;;;;;200.18;187.55;;;10.20;99.90;;;;;;5033454;28;20045;-73
2024/02/05 06:02:19;;;;;;;187.90;175.63;;;10.20;99.90;;;;;;5033680;28;20056;-73
2024/02/05 06:04:45;;;;;;;184.63;171.95;;;10.20;99.90;;;;;;5033983;28;20040;-73
2024/02/05 06:07:11;;;;;;;127.20;118.63;;;10.10;99.90;;;;;;5034137;28;20045;-72
2024/02/05 06:09:37;;;;;;;102.82;94.43;;;10.10;99.90;;;;;;5033726;28;20056;-72
2024/02/05 06:12:04;;;;;;;99.95;92.25;;;10.20;99.90;;;;;;5033159;28;20037;-73
2024/02/05 06:14:30;;;;;;;118.82;110.10;;;10.20;99.90;;;;;;5033434;28;20025;-73
2024/02/05 06:16:56;;;;;;;123.60;114.68;;;10.20;99.90;;;;;;5032107;28;20044;-73
2024/02/05 06:19:22;;;;;;;122.97;114.18;;;10.20;99.90;;;;;;5033082;28;20042;-73
2024/02/05 06:21:48;;;;;;;112.90;105.03;;;10.20;99.90;;;;;;5065375;28;20049;-72
2024/02/05 06:24:15;;;;;;;126.95;117.72;;;10.10;99.90;;;;;;5034138;28;20466;-73
2024/02/05 06:26:41;;;;;;;117.70;109.25;;;10.00;99.90;;;;;;5033773;28;20030;-72
2024/02/05 06:29:07;;;;;;;128.40;119.38;;;10.00;99.90;;;;;;5012388;28;20042;-72
2024/02/05 06:31:34;;;;;;;135.98;127.05;;;10.10;99.90;;;;;;5025166;28;20053;-72
2024/02/05 06:34:00;;;;;;;110.90;103.40;;;10.10;99.90;;;;;;5031717;28;20049;-73
2024/02/05 06:36:26;;;;;;;113.07;105.13;;;10.10;99.90;;;;;;5033712;28;20044;-72
2024/02/05 06:38:52;;;;;;;118.85;109.82;;;10.10;99.90;;;;;;5034039;28;20504;-73
2024/02/05 06:41:18;;;;;;;141.80;132.80;;;10.10;99.90;;;;;;5033529;28;20395;-73
2024/02/05 06:43:46;;;;;;;119.85;111.05;;;10.00;99.90;;;;;;5033022;28;20048;-72
2024/02/05 06:46:15;;;;;;;118.88;110.95;;;10.00;99.90;;;;;;5032704;28;20052;-73
2024/02/05 06:48:41;;;;;;;141.60;132.35;;;10.00;99.90;;;;;;5033485;28;20092;-72
2024/02/05 06:51:08;;;;;;;153.57;142.88;;;9.90;99.90;;;;;;5033334;28;20045;-73
2024/02/05 06:53:34;;;;;;;136.95;127.57;;;9.90;99.90;;;;;;5033183;28;20105;-72
2024/02/05 06:56:00;;;;;;;136.50;127.28;;;10.00;99.90;;;;;;5033372;28;20033;-73
2024/02/05 06:58:26;;;;;;;127.13;118.82;;;10.10;99.90;;;;;;5033683;28;20036;-73
2024/02/05 07:00:52;;;;;;;101.10;93.95;;;10.00;99.90;;;;;;5032448;28;20490;-72
2024/02/05 07:03:19;;;;;;;103.32;95.85;;;10.00;99.90;;;;;;5033325;28;20038;-72
2024/02/05 07:05:46;;;;;;;96.95;90.07;;;10.10;99.90;;;;;;5033289;28;20025;-72
2024/02/05 07:08:12;;;;;;;83.18;77.07;;;10.10;99.90;;;;;;5033105;28;20040;-72
2024/02/05 07:10:38;;;;;;;96.50;88.93;;;10.10;99.90;;;;;;5033083;28;20418;-73
2024/02/05 07:13:04;;;;;;;98.10;90.97;;;10.20;99.90;;;;;;5032602;28;20048;-73
2024/02/05 07:15:34;;;;;;;91.20;83.07;;;10.10;99.90;;;;;;5031812;28;20030;-73
2024/02/05 07:18:00;;;;;;;95.55;88.85;;;10.20;99.90;;;;;;5033331;28;20032;-73
2024/02/05 07:20:26;;;;;;;101.05;92.70;;;10.10;99.90;;;;;;5032083;28;20420;-73
2024/02/05 07:22:53;;;;;;;90.57;83.55;;;10.00;99.90;;;;;;5032709;28;20033;-73
2024/02/05 07:25:20;;;;;;;99.07;91.82;;;10.00;99.90;;;;;;5031460;28;20490;-73
2024/02/05 07:27:46;;;;;;;104.30;96.40;;;9.90;99.90;;;;;;5032072;28;20113;-73
2024/02/05 07:30:13;;;;;;;108.88;100.88;;;10.00;99.90;;;;;;5032460;28;20033;-73
2024/02/05 07:32:39;;;;;;;97.53;90.30;;;10.00;99.90;;;;;;5031116;28;20105;-73
2024/02/05 07:35:05;;;;;;;95.47;88.72;;;10.00;99.90;;;;;;5032496;28;20470;-73
2024/02/05 07:37:33;;;;;;;102.88;94.72;;;10.00;99.90;;;;;;5061503;28;20045;-73
2024/02/05 07:40:03;;;;;;;95.97;89.38;;;10.10;99.90;;;;;;5027543;28;20042;-73
2024/02/05 07:42:29;;;;;;;98.65;91.38;;;10.00;99.90;;;;;;5016725;28;20038;-73
2024/02/05 07:44:55;;;;;;;97.60;90.55;;;10.00;99.90;;;;;;5015232;28;20049;-73
2024/02/05 07:47:21;;;;;;;97.93;90.78;;;10.10;99.90;;;;;;5032217;28;20052;-73
2024/02/05 07:49:47;;;;;;;80.88;74.97;;;10.10;99.90;;;;;;5025101;28;20494;-73
2024/02/05 07:52:14;;;;;;;103.38;96.55;;;10.00;99.90;;;;;;5019221;28;20037;-73
2024/02/05 07:54:40;;;;;;;142.93;132.20;;;9.90;99.90;;;;;;5059858;28;20026;-73
2024/02/05 07:57:06;;;;;;;150.57;139.20;;;9.80;99.90;;;;;;5012757;28;20395;-73
2024/02/05 07:59:33;;;;;;;132.20;123.78;;;9.80;99.90;;;;;;5029910;28;20025;-71
2024/02/05 08:01:59;;;;;;;140.43;130.98;;;9.80;99.90;;;;;;5028177;28;20399;-71
2024/02/05 08:04:26;;;;;;;127.05;117.93;;;9.90;99.90;;;;;;5012369;28;20029;-71
2024/02/05 08:06:52;;;;;;;124.97;116.90;;;10.00;99.90;;;;;;5025502;28;20048;-71
2024/02/05 08:09:19;;;;;;;127.45;118.32;;;10.00;99.90;;;;;;5032402;28;20489;-71
2024/02/05 08:11:45;;;;;;;129.57;120.50;;;10.00;99.90;;;;;;5026054;28;20049;-71
2024/02/05 08:14:11;;;;;;;110.13;102.68;;;10.00;99.90;;;;;;5019049;28;20025;-71
2024/02/05 08:16:37;;;;;;;100.10;93.22;;;10.00;99.90;;;;;;5031085;28;20034;-71
2024/02/05 08:19:04;;;;;;;101.53;94.53;;;9.90;99.90;;;;;;5031667;28;20044;-71
2024/02/05 08:21:30;;;;;;;105.70;98.60;;;9.80;99.90;;;;;;5059424;28;20041;-72
2024/02/05 08:23:57;;;;;;;106.25;98.75;;;9.80;99.90;;;;;;5028456;28;20034;-71
2024/02/05 08:26:23;;;;;;;145.98;136.68;;;9.90;99.90;;;;;;5020784;28;20045;-72
2024/02/05 08:28:49;;;;;;;159.35;149.18;;;10.00;99.90;;;;;;5027858;28;20612;-72
2024/02/05 08:31:20;;;;;;;129.25;120.80;;;9.90;99.90;;;;;;5029835;28;20046;-72
2024/02/05 08:33:46;;;;;;;110.47;102.63;;;9.80;99.90;;;;;;5032116;28;20040;-72
2024/02/05 08:36:12;;;;;;;116.97;108.05;;;9.80;99.90;;;;;;5030713;28;20501;-75
2024/02/05 08:38:38;;;;;;;131.40;123.13;;;9.70;99.90;;;;;;5030695;28;20025;-73
2024/02/05 08:41:04;;;;;;;133.57;124.20;;;9.80;99.90;;;;;;5030997;28;20052;-73
2024/02/05 08:43:30;;;;;;;161.63;151.63;;;9.80;99.90;;;;;;5031643;28;20036;-73
2024/02/05 08:45:56;;;;;;;156.98;146.20;;;9.80;99.90;;;;;;5030742;28;20537;-74
2024/02/05 08:48:22;;;;;;;168.18;157.65;;;9.80;99.90;;;;;;5031774;28;20037;-73
2024/02/05 08:50:48;;;;;;;174.35;163.45;;;9.80;99.90;;;;;;5031641;28;20030;-73
2024/02/05 08:53:15;;;;;;;157.00;146.35;;;9.90;99.90;;;;;;5030127;28;20049;-74
2024/02/05 08:55:41;;;;;;;153.07;142.80;;;9.90;99.90;;;;;;5030933;28;20152;-73
2024/02/05 08:58:07;;;;;;;139.98;130.68;;;9.80;99.90;;;;;;5031832;28;20478;-73
2024/02/05 09:00:33;;;;;;;165.73;154.93;;;9.80;99.90;;;;;;5029324;28;20030;-73
2024/02/05 09:02:59;;;;;;;190.70;179.13;;;9.80;99.90;;;;;;5031709;28;20040;-73
2024/02/05 09:05:25;;;;;;;102.30;94.65;;;9.90;99.90;;;;;;5030746;28;20053;-73
2024/02/05 09:07:51;;;;;;;133.68;125.47;;;9.90;99.90;;;;;;5031435;28;20044;-73
2024/02/05 09:10:19;;;;;;;119.35;111.28;;;9.80;99.90;;;;;;5029453;28;20030;-74
2024/02/05 09:12:45;;;;;;;136.10;126.88;;;9.90;99.90;;;;;;5030181;28;20470;-73
2024/02/05 09:15:11;;;;;;;126.63;118.15;;;9.90;99.90;;;;;;5029048;28;20053;-74
2024/02/05 09:17:37;;;;;;;136.15;127.07;;;10.00;99.90;;;;;;5030298;28;20485;-74
2024/02/05 09:20:04;;;;;;;87.60;81.60;;;10.00;99.90;;;;;;5023835;28;20030;-73
2024/02/05 09:22:30;;;;;;;86.07;79.35;;;10.00;99.90;;;;;;5030714;28;20355;-73
2024/02/05 09:24:56;;;;;;;135.27;126.95;;;10.00;99.90;;;;;;5030896;28;20060;-73
2024/02/05 09:27:22;;;;;;;110.30;103.07;;;9.90;99.90;;;;;;5030006;28;20033;-73
2024/02/05 09:29:48;;;;;;;112.53;105.35;;;10.00;99.90;;;;;;5029674;28;20042;-74
2024/02/05 09:32:14;;;;;;;81.63;75.85;;;10.10;99.90;;;;;;5030031;28;20053;-73
2024/02/05 09:34:40;;;;;;;88.72;82.68;;;10.00;99.90;;;;;;5030611;28;20040;-74
2024/02/05 09:37:06;;;;;;;97.05;90.85;;;10.00;99.90;;;;;;5028663;28;20528;-73
2024/02/05 09:39:33;;;;;;;107.65;100.65;;;10.00;99.90;;;;;;5031971;28;20045;-73
2024/02/05 09:42:02;;;;;;;120.70;112.22;;;9.90;99.90;;;;;;5034108;28;20045;-73
2024/02/05 09:44:28;;;;;;;122.50;114.80;;;9.90;99.90;;;;;;5031163;28;20194;-74
2024/02/05 09:46:55;;;;;;;98.28;91.30;;;9.90;99.90;;;;;;5026106;28;20049;-73
2024/02/05 09:49:21;;;;;;;112.68;105.28;;;9.90;99.90;;;;;;5030147;28;20029;-73
2024/02/05 09:51:48;;;;;;;97.40;90.50;;;9.90;99.90;;;;;;5033252;28;20053;-74
2024/02/05 09:54:14;;;;;;;125.55;117.38;;;9.90;99.90;;;;;;5025539;28;20030;-73
2024/02/05 09:56:40;;;;;;;139.77;130.52;;;10.00;99.90;;;;;;5026936;28;20033;-74
2024/02/05 09:59:07;;;;;;;135.52;126.20;;;10.00;99.90;;;;;;5030966;28;20025;-74
2024/02/05 10:01:33;;;;;;;154.73;144.35;;;9.90;99.90;;;;;;5032695;28;20037;-73
2024/02/05 10:04:00;;;;;;;153.05;143.23;;;9.90;99.90;;;;;;5032949;28;20049;-74
2024/02/05 10:06:30;;;;;;;91.57;85.45;;;10.00;99.90;;;;;;5034292;28;20021;-74
2024/02/05 10:09:02;;;;;;;94.45;87.57;;;10.00;99.90;;;;;;5045579;28;20037;-74
2024/02/05 10:11:28;;;;;;;131.18;122.47;;;10.00;99.90;;;;;;5032897;28;20025;-73
2024/02/05 10:13:55;;;;;;;120.28;112.28;;;10.00;99.90;;;;;;5016938;28;20053;-74
2024/02/05 10:16:22;;;;;;;144.45;135.10;;;10.10;99.90;;;;;;5032617;28;20033;-74
2024/02/05 10:18:49;;;;;;;109.28;101.60;;;10.10;99.90;;;;;;5033584;28;20049;-74
2024/02/05 10:21:16;;;;;;;102.75;94.80;;;10.10;99.90;;;;;;5033673;28;20378;-79
2024/02/05 10:23:53;;;;;;;151.55;141.48;;;10.10;99.90;;;;;;5047930;28;20477;-74
2024/02/05 10:26:20;;;;;;;115.15;107.43;;;10.10;99.90;;;;;;5032606;28;20481;-75
2024/02/05 10:28:46;;;;;;;86.18;80.07;;;10.10;99.90;;;;;;5033758;28;20052;-74
2024/02/05 10:31:13;;;;;;;105.40;98.40;;;10.00;99.90;;;;;;5033462;28;20049;-74
2024/02/05 10:33:40;;;;;;;117.13;108.88;;;10.10;99.90;;;;;;5032647;28;20057;-74
2024/02/05 10:36:07;;;;;;;119.93;112.13;;;10.10;99.90;;;;;;5031225;28;20046;-73
2024/02/05 10:38:36;;;;;;;98.60;91.80;;;10.10;99.90;;;;;;5033743;28;20449;-73
2024/02/05 10:41:06;;;;;;;103.13;96.40;;;10.00;99.90;;;;;;5028725;28;20046;-73
2024/02/05 10:43:32;;;;;;;134.70;125.93;;;10.00;99.90;;;;;;5033982;28;20097;-74
2024/02/05 10:45:59;;;;;;;130.52;121.07;;;10.00;99.90;;;;;;5033060;28;20048;-74
2024/02/05 10:48:25;;;;;;;129.20;120.78;;;10.10;99.90;;;;;;5033577;28;20021;-74
2024/02/05 10:50:51;;;;;;;106.78;99.28;;;10.10;99.90;;;;;;5032913;28;20427;-73
2024/02/05 10:53:17;;;;;;;106.30;99.30;;;10.20;99.90;;;;;;5032523;28;20052;-73
2024/02/05 10:55:46;;;;;;;94.55;88.40;;;10.10;99.90;;;;;;5033153;28;20046;-74
2024/02/05 10:58:15;;;;;;;80.18;74.63;;;10.00;99.90;;;;;;5032746;28;20033;-74
2024/02/05 11:00:41;;;;;;;88.97;82.95;;;10.00;99.90;;;;;;5032473;28;20360;-73
2024/02/05 11:03:14;;;;;;;117.40;110.07;;;10.00;99.90;;;;;;5033683;28;20030;-74
2024/02/05 11:05:41;;;;;;;144.90;135.70;;;10.00;99.90;;;;;;5032431;28;20037;-74
2024/02/05 11:08:19;;;;;;;172.18;159.88;;;9.90;99.90;;;;;;5031466;28;20026;-74
2024/02/05 11:10:46;;;;;;;163.93;153.15;;;9.90;99.90;;;;;;5027322;28;20026;-73
2024/02/05 11:13:28;;;;;;;120.45;112.18;;;9.90;99.90;;;;;;5032212;28;20041;-73
2024/02/05 11:15:54;;;;;;;129.70;120.95;;;9.90;99.90;;;;;;5031221;28;20037;-74
2024/02/05 11:18:42;;;;;;;155.57;144.48;;;10.00;99.90;;;;;;5033262;28;20040;-74
2024/02/05 11:21:09;;;;;;;138.57;128.90;;;9.90;99.90;;;;;;5031471;28;20041;-74
2024/02/05 11:23:35;;;;;;;144.10;134.68;;;10.00;99.90;;;;;;5031754;28;20033;-73
2024/02/05 11:26:01;;;;;;;141.60;131.25;;;9.90;99.90;;;;;;5030634;28;20046;-73
2024/02/05 11:28:27;;;;;;;136.65;128.07;;;9.90;99.90;;;;;;5030442;28;20355;-74
2024/02/05 11:31:00;;;;;;;130.10;121.57;;;10.00;99.90;;;;;;5031257;28;20048;-74
2024/02/05 11:33:29;;;;;;;125.38;117.50;;;10.00;99.90;;;;;;5031817;28;20054;-73
2024/02/05 11:35:56;;;;;;;128.65;120.43;;;10.10;99.90;;;;;;5031854;28;20041;-73
2024/02/05 11:38:22;;;;;;;131.18;121.68;;;10.10;99.90;;;;;;5031223;28;20044;-74
2024/02/05 11:40:52;;;;;;;139.07;128.23;;;10.10;99.90;;;;;;5031250;28;20517;-73
2024/02/05 11:43:25;;;;;;;137.80;128.82;;;10.10;99.90;;;;;;5014884;28;20029;-73
2024/02/05 11:45:52;;;;;;;119.18;111.57;;;10.10;99.90;;;;;;5031139;28;20029;-73
2024/02/05 11:48:22;;;;;;;125.78;117.90;;;10.10;99.90;;;;;;5031870;28;20486;-73
2024/02/05 11:50:49;;;;;;;130.23;121.68;;;10.10;99.90;;;;;;5029016;28;20398;-74
2024/02/05 11:53:15;;;;;;;128.82;120.75;;;10.10;99.90;;;;;;5031973;28;20045;-73
2024/02/05 11:55:42;;;;;;;127.18;118.90;;;10.10;99.90;;;;;;5031966;28;20048;-73
2024/02/05 11:58:08;;;;;;;138.35;130.38;;;10.10;99.90;;;;;;5032059;28;20034;-73
2024/02/05 12:00:35;;;;;;;136.00;127.40;;;10.20;99.90;;;;;;5030858;28;20037;-74
2024/02/05 12:03:01;;;;;;;130.55;122.72;;;10.20;99.90;;;;;;5030505;28;20441;-73
2024/02/05 12:05:27;;;;;;;134.80;126.55;;;10.20;99.90;;;;;;5031306;28;20038;-73
2024/02/05 12:07:54;;;;;;;110.30;102.50;;;10.20;99.90;;;;;;5012955;28;20044;-74